Elena Of London — 2COR3 — position and weather

sailwx.info

Track history (hours):
 
Tides and Currents Weather Stations Pressure Air Temp Water Temp Dewpoint Dewpoint Depression Visibility Wind Speed Wind Dir Waves Ship Positions

Elena Of London

Last reported at 2017-Apr-29 15:31 UTC. Time now 2017-Apr-29 15:29 UTC.
Position N 39°59' E 002°56'.

Length 44 m; draft 5.2 m.

Type: Sailing vessel. MMSI: 235074534.

Date/timePositionNaut miles runAvg speedWind from/ knotsBaromVisibWave heightAir tempDewpointWater temp
2017-Apr-29 15:31N 39°59' E 002°56'611.0
2017-Apr-29 15:00N 39°55' E 002°50'1111.0
2017-Apr-29 14:00N 39°48' E 002°40'2 4.7
2017-Apr-29 13:30N 39°46' E 002°38'0 0.0
2017-Apr-29 13:00N 39°46' E 002°38'0 0.0
2017-Apr-29 12:30N 39°46' E 002°38'0 0.0
2017-Apr-29 11:59N 39°46' E 002°38'4 7.3
2017-Apr-29 11:28N 39°44' E 002°34'610.3
2017-Apr-29 10:54N 39°40' E 002°28'11 8.7
2017-Apr-29 09:39N 39°30' E 002°22'210.9
2017-Apr-29 09:30N 39°29' E 002°24'510.8
2017-Apr-29 09:00N 39°27' E 002°31'510.7
2017-Apr-29 08:31N 39°31' E 002°36'3 6.4
2017-Apr-29 08:00N 39°33' E 002°38'0 0.4
2017-Apr-29 07:28N 39°33' E 002°38'0 0.0
2017-Apr-29 06:55N 39°33' E 002°38'0 0.0
2017-Apr-29 06:25N 39°33' E 002°38'0 0.0
2017-Apr-29 05:58N 39°33' E 002°38'0 0.0
2017-Apr-29 05:28N 39°33' E 002°38'0 0.0
2017-Apr-29 04:58N 39°33' E 002°38'0 0.0
2017-Apr-29 04:28N 39°33' E 002°38'0 0.0
2017-Apr-29 03:58N 39°33' E 002°38'0 0.0
2017-Apr-29 03:28N 39°33' E 002°38'0 0.0
2017-Apr-29 02:58N 39°33' E 002°38'0 0.0
2017-Apr-29 02:28N 39°33' E 002°38'0 0.0
2017-Apr-29 01:58N 39°33' E 002°38'0 0.0
2017-Apr-29 01:28N 39°33' E 002°38'0 0.0
2017-Apr-29 00:58N 39°33' E 002°38'0 0.0
2017-Apr-29 00:28N 39°33' E 002°38'0 0.0
2017-Apr-28 23:58N 39°33' E 002°38'0 0.0
2017-Apr-28 23:28N 39°33' E 002°38'0 0.0
2017-Apr-28 22:58N 39°33' E 002°38'0 0.0
2017-Apr-28 22:28N 39°33' E 002°38'0 0.0
2017-Apr-28 21:58N 39°33' E 002°38'0 0.0
2017-Apr-28 21:28N 39°33' E 002°38'0 0.0
2017-Apr-28 20:58N 39°33' E 002°38'0 0.0
2017-Apr-28 20:28N 39°33' E 002°38'0 0.0
2017-Apr-28 19:58N 39°33' E 002°38'0 0.0
2017-Apr-28 19:28N 39°33' E 002°38'0 0.0
2017-Apr-28 18:58N 39°33' E 002°38'0 0.0
2017-Apr-28 18:28N 39°33' E 002°38'0 0.0
2017-Apr-28 17:58N 39°33' E 002°38'0 0.0
2017-Apr-28 17:28N 39°33' E 002°38'0 0.0
2017-Apr-28 16:58N 39°33' E 002°38'0 0.0
2017-Apr-28 16:28N 39°33' E 002°38'0 0.0
2017-Apr-28 15:58N 39°33' E 002°38'0 0.0
2017-Apr-28 15:28N 39°33' E 002°38'0 0.0
2017-Apr-28 14:58N 39°33' E 002°38'0 0.0
2017-Apr-28 13:58N 39°33' E 002°38'0 0.0
2017-Apr-28 13:28N 39°33' E 002°38'0 0.0
2017-Apr-28 12:58N 39°33' E 002°38'0 0.0
2017-Apr-28 12:28N 39°33' E 002°38'0 0.0
2017-Apr-28 11:58N 39°33' E 002°38'0 0.0
2017-Apr-28 11:28N 39°33' E 002°38'0 0.0
2017-Apr-28 10:58N 39°33' E 002°38'0 0.0
2017-Apr-28 10:28N 39°33' E 002°38'0 0.0
2017-Apr-28 09:58N 39°33' E 002°38'0 0.0
2017-Apr-28 09:28N 39°33' E 002°38'0 0.0
2017-Apr-28 08:58N 39°33' E 002°38'0 0.0
2017-Apr-28 08:28N 39°33' E 002°38'0 0.0
2017-Apr-28 07:58N 39°33' E 002°38'0 0.0
2017-Apr-28 07:28N 39°33' E 002°38'0 0.0
2017-Apr-28 06:58N 39°33' E 002°38'0 0.0
2017-Apr-28 06:28N 39°33' E 002°38'0 0.0
2017-Apr-28 05:58N 39°33' E 002°38'0 0.0
2017-Apr-28 05:28N 39°33' E 002°38'0 0.0
2017-Apr-28 04:58N 39°33' E 002°38'0 0.0
2017-Apr-28 04:28N 39°33' E 002°38'0 0.0
2017-Apr-28 03:58N 39°33' E 002°38'0 0.0
2017-Apr-28 03:28N 39°33' E 002°38'0 0.0
2017-Apr-28 02:58N 39°33' E 002°38'0 0.0
2017-Apr-28 02:28N 39°33' E 002°38'0 0.0
2017-Apr-28 01:58N 39°33' E 002°38'0 0.0
2017-Apr-28 01:28N 39°33' E 002°38'0 0.0
2017-Apr-28 00:58N 39°33' E 002°38'0 0.0
2017-Apr-28 00:28N 39°33' E 002°38'0 0.0
2017-Apr-27 23:58N 39°33' E 002°38'0 0.0
2017-Apr-27 23:28N 39°33' E 002°38'0 0.0
2017-Apr-27 22:58N 39°33' E 002°38'0 0.0
2017-Apr-27 22:22N 39°33' E 002°38'0 0.0
2017-Apr-27 21:58N 39°33' E 002°38'0 0.0
2017-Apr-27 21:28N 39°33' E 002°38'0 0.0
2017-Apr-27 20:58N 39°33' E 002°38'0 0.0
2017-Apr-27 20:28N 39°33' E 002°38'0 0.0
2017-Apr-27 19:58N 39°33' E 002°38'0 0.0
2017-Apr-27 19:28N 39°33' E 002°38'0 0.0
2017-Apr-27 18:58N 39°33' E 002°38'0 0.0
2017-Apr-27 18:28N 39°33' E 002°38'0 0.0
2017-Apr-27 17:58N 39°33' E 002°38'0 0.0
2017-Apr-27 17:28N 39°33' E 002°38'0 0.0
2017-Apr-27 16:58N 39°33' E 002°38'0 0.0
2017-Apr-27 16:28N 39°33' E 002°38'0 0.0
2017-Apr-27 15:58N 39°33' E 002°38'0 0.0
2017-Apr-27 15:28N 39°33' E 002°38'0 0.0
2017-Apr-27 14:58N 39°33' E 002°38'0 0.0
2017-Apr-27 13:58N 39°33' E 002°38'0 0.0
2017-Apr-27 13:28N 39°33' E 002°38'0 0.0
2017-Apr-27 12:58N 39°33' E 002°38'0 0.0
2017-Apr-27 12:28N 39°33' E 002°38'0 0.0
2017-Apr-27 11:58N 39°33' E 002°38'0 0.0
2017-Apr-27 11:28N 39°33' E 002°38'0 0.0
2017-Apr-27 10:58N 39°33' E 002°38'0 0.0
2017-Apr-27 10:28N 39°33' E 002°38'0 0.0
2017-Apr-27 09:58N 39°33' E 002°38'0 0.0
2017-Apr-27 09:28N 39°33' E 002°38'1 2.1
2017-Apr-27 08:59N 39°33' E 002°39'0 0.0
2017-Apr-27 08:29N 39°33' E 002°39'0 0.0
2017-Apr-27 07:59N 39°33' E 002°39'0 0.0
2017-Apr-27 07:29N 39°33' E 002°39'0 0.0
2017-Apr-27 06:59N 39°33' E 002°39'0 0.0
2017-Apr-27 06:29N 39°33' E 002°39'0 0.0
2017-Apr-27 05:59N 39°33' E 002°39'0 0.0
2017-Apr-27 05:29N 39°33' E 002°39'0 1.0
2017-Apr-27 05:00N 39°33' E 002°39'3 6.4
2017-Apr-27 04:31N 39°30' E 002°37'4 7.6
2017-Apr-27 04:01N 39°27' E 002°34'4 7.5
2017-Apr-27 03:30N 39°24' E 002°31'4 7.2
2017-Apr-27 03:00N 39°21' E 002°28'3 6.8
2017-Apr-27 02:30N 39°19' E 002°26'3 6.6
2017-Apr-27 02:00N 39°16' E 002°23'3 6.8
2017-Apr-27 01:30N 39°13' E 002°20'3 6.6
2017-Apr-27 01:00N 39°11' E 002°17'4 7.1
2017-Apr-27 00:30N 39°08' E 002°14'4 7.8
2017-Apr-27 00:01N 39°05' E 002°11'4 8.2
2017-Apr-26 23:30N 39°02' E 002°08'4 8.3
2017-Apr-26 23:00N 38°58' E 002°05'5 9.4
2017-Apr-26 22:31N 38°55' E 002°01'5 9.9
2017-Apr-26 22:00N 38°51' E 001°56'510.3
2017-Apr-26 21:30N 38°48' E 001°52'510.5
2017-Apr-26 21:00N 38°44' E 001°47'510.5
2017-Apr-26 20:31N 38°40' E 001°43'510.6
2017-Apr-26 20:01N 38°37' E 001°38'610.6
2017-Apr-26 19:29N 38°33' E 001°32'510.7
2017-Apr-26 19:01N 38°30' E 001°27'1011.0
2017-Apr-26 18:07N 38°25' E 001°16'4511.0
2017-Apr-26 14:00N 38°00' E 000°28'710.9
2017-Apr-26 13:24N 37°57' E 000°21'410.9
2017-Apr-26 13:01N 37°54' E 000°16'611.1
2017-Apr-26 12:30N 37°51' E 000°11'611.0
2017-Apr-26 11:56N 37°47' E 000°04'511.1
2017-Apr-26 11:28N 37°44' W 000°01'511.0
2017-Apr-26 11:00N 37°42' W 000°07'610.9
2017-Apr-26 10:30N 37°39' W 000°13'610.9
2017-Apr-26 09:59N 37°36' W 000°19'510.9
2017-Apr-26 09:30N 37°32' W 000°24'510.9
2017-Apr-26 09:00N 37°29' W 000°29'1310.3
2017-Apr-26 07:46N 37°21' W 000°41'310.2
2017-Apr-26 07:31N 37°19' W 000°44'910.2
2017-Apr-26 06:40N 37°14' W 000°52'21010.5
2017-Apr-25 10:39N 36°09' W 005°02'210.8
2017-Apr-25 10:31N 36°09' W 005°04'510.8
2017-Apr-25 10:00N 36°08' W 005°10'510.7
2017-Apr-25 09:31N 36°06' W 005°16'611.5
2017-Apr-25 09:01N 36°01' W 005°21'611.7
2017-Apr-25 08:30N 35°58' W 005°27'611.8
2017-Apr-25 08:00N 35°56' W 005°34'611.5
2017-Apr-25 07:30N 35°55' W 005°41'1110.6
2017-Apr-25 06:25N 35°55' W 005°55'21910.7
2017-Apr-24 09:58N 36°18' W 010°24'4711.5
2017-Apr-24 05:54N 36°26' W 011°21'511.5
2017-Apr-24 05:27N 36°28' W 011°27'511.2
2017-Apr-24 05:00N 36°29' W 011°33'911.3
2017-Apr-24 04:13N 36°31' W 011°44'310.9
2017-Apr-24 03:59N 36°32' W 011°47'1010.8
2017-Apr-24 03:03N 36°35' W 011°59'110.6
2017-Apr-24 02:55N 36°35' W 012°01'51910.2
2017-Apr-22 00:02N 38°14' W 022°43'5210.2
2017-Apr-21 18:56N 38°16' W 023°49'510.5
2017-Apr-21 18:28N 38°16' W 023°55'510.6
2017-Apr-21 18:00N 38°17' W 024°01'510.4
2017-Apr-21 17:30N 38°17' W 024°08'510.4
2017-Apr-21 17:00N 38°17' W 024°14'510.2
2017-Apr-21 16:30N 38°18' W 024°21'510.4
2017-Apr-21 16:00N 38°18' W 024°27'510.1
2017-Apr-21 15:31N 38°18' W 024°34'510.1
2017-Apr-21 15:00N 38°19' W 024°40'510.2
2017-Apr-21 14:30N 38°20' W 024°47'1010.3
2017-Apr-21 13:30N 38°20' W 024°60'510.1
2017-Apr-21 13:00N 38°20' W 025°06'510.0
2017-Apr-21 12:31N 38°21' W 025°12'5 9.8
2017-Apr-21 12:00N 38°21' W 025°19'5 9.9
2017-Apr-21 11:30N 38°21' W 025°25'5 9.8
2017-Apr-21 11:00N 38°21' W 025°31'5 9.7
2017-Apr-21 10:30N 38°21' W 025°37'5 9.7
2017-Apr-21 10:01N 38°21' W 025°43'5 9.5
2017-Apr-21 09:30N 38°21' W 025°50'5 9.3
2017-Apr-21 09:00N 38°21' W 025°55'5 9.5
2017-Apr-21 08:30N 38°21' W 026°01'5 9.6
2017-Apr-21 08:01N 38°22' W 026°08'5 9.2
2017-Apr-21 07:30N 38°22' W 026°13'5 9.0
2017-Apr-21 07:01N 38°22' W 026°19'4 9.0
2017-Apr-21 06:31N 38°23' W 026°25'4 8.8
2017-Apr-21 06:00N 38°23' W 026°30'5 9.2
2017-Apr-21 05:30N 38°24' W 026°36'5 9.1
2017-Apr-21 05:01N 38°24' W 026°42'5 9.0
2017-Apr-21 04:30N 38°24' W 026°48'4 8.8
2017-Apr-21 04:00N 38°24' W 026°53'4 8.9
2017-Apr-21 03:30N 38°24' W 026°59'4 8.8
2017-Apr-21 03:00N 38°25' W 027°05'4 8.7
2017-Apr-21 02:30N 38°25' W 027°10'4 8.8
2017-Apr-21 02:00N 38°25' W 027°16'4 8.9
2017-Apr-21 01:30N 38°26' W 027°21'5 9.2
2017-Apr-21 01:00N 38°27' W 027°27'5 9.4
2017-Apr-21 00:31N 38°28' W 027°33'5 9.2
2017-Apr-21 00:00N 38°28' W 027°39'5 9.3
2017-Apr-20 23:30N 38°29' W 027°45'5 9.3
2017-Apr-20 23:01N 38°30' W 027°51'5 9.2
2017-Apr-20 22:30N 38°31' W 027°56'5 9.5
2017-Apr-20 22:00N 38°32' W 028°02'5 9.6
2017-Apr-20 21:31N 38°33' W 028°08'5 9.4
2017-Apr-20 21:00N 38°33' W 028°14'5 9.2
2017-Apr-20 20:30N 38°34' W 028°20'4 8.7
2017-Apr-20 20:01N 38°35' W 028°26'4 8.8
2017-Apr-20 19:30N 38°34' W 028°31'5 9.4
2017-Apr-20 19:00N 38°32' W 028°37'1 1.2
2017-Apr-20 18:29N 38°32' W 028°37'0 0.0
2017-Apr-20 17:59N 38°32' W 028°37'0 0.0
2017-Apr-20 17:29N 38°32' W 028°37'0 0.0
2017-Apr-20 16:59N 38°32' W 028°37'0 0.0
2017-Apr-20 16:29N 38°32' W 028°37'0 0.0
2017-Apr-20 15:59N 38°32' W 028°37'0 0.4
2017-Apr-20 15:28N 38°32' W 028°38'0 0.0
2017-Apr-20 14:58N 38°32' W 028°38'0 0.0
2017-Apr-20 14:29N 38°32' W 028°38'0 0.0
2017-Apr-20 13:28N 38°32' W 028°38'0 0.0
2017-Apr-20 12:58N 38°32' W 028°38'0 0.0
2017-Apr-20 12:29N 38°32' W 028°38'0 0.0
2017-Apr-20 11:58N 38°32' W 028°38'0 0.0
2017-Apr-20 11:28N 38°32' W 028°38'0 0.0
2017-Apr-20 10:59N 38°32' W 028°38'0 0.0
2017-Apr-20 10:28N 38°32' W 028°38'0 0.0
2017-Apr-20 09:58N 38°32' W 028°38'0 0.0
2017-Apr-20 09:29N 38°32' W 028°38'0 0.0
2017-Apr-20 08:58N 38°32' W 028°38'0 0.0
2017-Apr-20 08:22N 38°32' W 028°38'0 0.0
2017-Apr-20 07:59N 38°32' W 028°38'0 0.0
2017-Apr-20 07:28N 38°32' W 028°38'0 0.0
2017-Apr-20 06:55N 38°32' W 028°38'0 0.0
2017-Apr-20 06:29N 38°32' W 028°38'0 0.0
2017-Apr-20 05:58N 38°32' W 028°38'0 0.0
2017-Apr-20 05:28N 38°32' W 028°38'0 0.0
2017-Apr-20 04:59N 38°32' W 028°38'0 0.0
2017-Apr-20 04:28N 38°32' W 028°38'0 0.0
2017-Apr-20 03:59N 38°32' W 028°38'0 0.0
2017-Apr-20 03:28N 38°32' W 028°38'0 0.0
2017-Apr-20 02:58N 38°32' W 028°38'0 0.0
2017-Apr-20 02:28N 38°32' W 028°38'0 0.0
2017-Apr-20 01:59N 38°32' W 028°38'0 0.0
2017-Apr-20 01:28N 38°32' W 028°38'0 0.0
2017-Apr-20 00:58N 38°32' W 028°38'0 0.0
2017-Apr-20 00:29N 38°32' W 028°38'0 0.0
2017-Apr-19 23:58N 38°32' W 028°38'0 0.0
2017-Apr-19 23:28N 38°32' W 028°38'0 0.0
2017-Apr-19 22:58N 38°32' W 028°38'0 0.0
2017-Apr-19 22:28N 38°32' W 028°38'0 0.0
2017-Apr-19 21:58N 38°32' W 028°38'0 0.0
2017-Apr-19 21:28N 38°32' W 028°38'0 0.0
2017-Apr-19 20:55N 38°32' W 028°38'0 0.0
2017-Apr-19 20:28N 38°32' W 028°38'0 0.0
2017-Apr-19 19:58N 38°32' W 028°38'0 0.0
2017-Apr-19 19:28N 38°32' W 028°38'0 0.0
2017-Apr-19 18:58N 38°32' W 028°38'0 0.0
2017-Apr-19 18:29N 38°32' W 028°38'0 0.0
2017-Apr-19 17:58N 38°32' W 028°38'0 0.0
2017-Apr-19 17:28N 38°32' W 028°38'0 0.0
2017-Apr-19 16:58N 38°32' W 028°38'0 0.0
2017-Apr-19 16:25N 38°32' W 028°38'0 0.0
2017-Apr-19 15:58N 38°32' W 028°38'0 0.0
2017-Apr-19 15:29N 38°32' W 028°38'  
Track history (hours):
 
Tides and Currents Weather Stations Pressure Air Temp Water Temp Dewpoint Dewpoint Depression Visibility Wind Speed Wind Dir Waves Ship Positions

Elena Of London

Last reported at 2017-Apr-29 15:31 UTC. Time now 2017-Apr-29 15:29 UTC.
Position N 39°59' E 002°56'.

Length 44 m; draft 5.2 m.

Type: Sailing vessel. MMSI: 235074534.

Date/timePositionNaut miles runAvg speedWind from/ knotsBaromVisibWave heightAir tempDewpointWater temp
2017-Apr-29 15:31N 39°59' E 002°56'611.0
2017-Apr-29 15:00N 39°55' E 002°50'1111.0
2017-Apr-29 14:00N 39°48' E 002°40'2 4.7
2017-Apr-29 13:30N 39°46' E 002°38'0 0.0
2017-Apr-29 13:00N 39°46' E 002°38'0 0.0
2017-Apr-29 12:30N 39°46' E 002°38'0 0.0
2017-Apr-29 11:59N 39°46' E 002°38'4 7.3
2017-Apr-29 11:28N 39°44' E 002°34'610.3
2017-Apr-29 10:54N 39°40' E 002°28'11 8.7
2017-Apr-29 09:39N 39°30' E 002°22'210.9
2017-Apr-29 09:30N 39°29' E 002°24'510.8
2017-Apr-29 09:00N 39°27' E 002°31'510.7
2017-Apr-29 08:31N 39°31' E 002°36'3 6.4
2017-Apr-29 08:00N 39°33' E 002°38'0 0.4
2017-Apr-29 07:28N 39°33' E 002°38'0 0.0
2017-Apr-29 06:55N 39°33' E 002°38'0 0.0
2017-Apr-29 06:25N 39°33' E 002°38'0 0.0
2017-Apr-29 05:58N 39°33' E 002°38'0 0.0
2017-Apr-29 05:28N 39°33' E 002°38'0 0.0
2017-Apr-29 04:58N 39°33' E 002°38'0 0.0
2017-Apr-29 04:28N 39°33' E 002°38'0 0.0
2017-Apr-29 03:58N 39°33' E 002°38'0 0.0
2017-Apr-29 03:28N 39°33' E 002°38'0 0.0
2017-Apr-29 02:58N 39°33' E 002°38'0 0.0
2017-Apr-29 02:28N 39°33' E 002°38'0 0.0
2017-Apr-29 01:58N 39°33' E 002°38'0 0.0
2017-Apr-29 01:28N 39°33' E 002°38'0 0.0
2017-Apr-29 00:58N 39°33' E 002°38'0 0.0
2017-Apr-29 00:28N 39°33' E 002°38'0 0.0
2017-Apr-28 23:58N 39°33' E 002°38'0 0.0
2017-Apr-28 23:28N 39°33' E 002°38'0 0.0
2017-Apr-28 22:58N 39°33' E 002°38'0 0.0
2017-Apr-28 22:28N 39°33' E 002°38'0 0.0
2017-Apr-28 21:58N 39°33' E 002°38'0 0.0
2017-Apr-28 21:28N 39°33' E 002°38'0 0.0
2017-Apr-28 20:58N 39°33' E 002°38'0 0.0
2017-Apr-28 20:28N 39°33' E 002°38'0 0.0
2017-Apr-28 19:58N 39°33' E 002°38'0 0.0
2017-Apr-28 19:28N 39°33' E 002°38'0 0.0
2017-Apr-28 18:58N 39°33' E 002°38'0 0.0
2017-Apr-28 18:28N 39°33' E 002°38'0 0.0
2017-Apr-28 17:58N 39°33' E 002°38'0 0.0
2017-Apr-28 17:28N 39°33' E 002°38'0 0.0
2017-Apr-28 16:58N 39°33' E 002°38'0 0.0
2017-Apr-28 16:28N 39°33' E 002°38'0 0.0
2017-Apr-28 15:58N 39°33' E 002°38'0 0.0
2017-Apr-28 15:28N 39°33' E 002°38'0 0.0
2017-Apr-28 14:58N 39°33' E 002°38'0 0.0
2017-Apr-28 13:58N 39°33' E 002°38'0 0.0
2017-Apr-28 13:28N 39°33' E 002°38'0 0.0
2017-Apr-28 12:58N 39°33' E 002°38'0 0.0
2017-Apr-28 12:28N 39°33' E 002°38'0 0.0
2017-Apr-28 11:58N 39°33' E 002°38'0 0.0
2017-Apr-28 11:28N 39°33' E 002°38'0 0.0
2017-Apr-28 10:58N 39°33' E 002°38'0 0.0
2017-Apr-28 10:28N 39°33' E 002°38'0 0.0
2017-Apr-28 09:58N 39°33' E 002°38'0 0.0
2017-Apr-28 09:28N 39°33' E 002°38'0 0.0
2017-Apr-28 08:58N 39°33' E 002°38'0 0.0
2017-Apr-28 08:28N 39°33' E 002°38'0 0.0
2017-Apr-28 07:58N 39°33' E 002°38'0 0.0
2017-Apr-28 07:28N 39°33' E 002°38'0 0.0
2017-Apr-28 06:58N 39°33' E 002°38'0 0.0
2017-Apr-28 06:28N 39°33' E 002°38'0 0.0
2017-Apr-28 05:58N 39°33' E 002°38'0 0.0
2017-Apr-28 05:28N 39°33' E 002°38'0 0.0
2017-Apr-28 04:58N 39°33' E 002°38'0 0.0
2017-Apr-28 04:28N 39°33' E 002°38'0 0.0
2017-Apr-28 03:58N 39°33' E 002°38'0 0.0
2017-Apr-28 03:28N 39°33' E 002°38'0 0.0
2017-Apr-28 02:58N 39°33' E 002°38'0 0.0
2017-Apr-28 02:28N 39°33' E 002°38'0 0.0
2017-Apr-28 01:58N 39°33' E 002°38'0 0.0
2017-Apr-28 01:28N 39°33' E 002°38'0 0.0
2017-Apr-28 00:58N 39°33' E 002°38'0 0.0
2017-Apr-28 00:28N 39°33' E 002°38'0 0.0
2017-Apr-27 23:58N 39°33' E 002°38'0 0.0
2017-Apr-27 23:28N 39°33' E 002°38'0 0.0
2017-Apr-27 22:58N 39°33' E 002°38'0 0.0
2017-Apr-27 22:22N 39°33' E 002°38'0 0.0
2017-Apr-27 21:58N 39°33' E 002°38'0 0.0
2017-Apr-27 21:28N 39°33' E 002°38'0 0.0
2017-Apr-27 20:58N 39°33' E 002°38'0 0.0
2017-Apr-27 20:28N 39°33' E 002°38'0 0.0
2017-Apr-27 19:58N 39°33' E 002°38'0 0.0
2017-Apr-27 19:28N 39°33' E 002°38'0 0.0
2017-Apr-27 18:58N 39°33' E 002°38'0 0.0
2017-Apr-27 18:28N 39°33' E 002°38'0 0.0
2017-Apr-27 17:58N 39°33' E 002°38'0 0.0
2017-Apr-27 17:28N 39°33' E 002°38'0 0.0
2017-Apr-27 16:58N 39°33' E 002°38'0 0.0
2017-Apr-27 16:28N 39°33' E 002°38'0 0.0
2017-Apr-27 15:58N 39°33' E 002°38'0 0.0
2017-Apr-27 15:28N 39°33' E 002°38'0 0.0
2017-Apr-27 14:58N 39°33' E 002°38'0 0.0
2017-Apr-27 13:58N 39°33' E 002°38'0 0.0
2017-Apr-27 13:28N 39°33' E 002°38'0 0.0
2017-Apr-27 12:58N 39°33' E 002°38'0 0.0
2017-Apr-27 12:28N 39°33' E 002°38'0 0.0
2017-Apr-27 11:58N 39°33' E 002°38'0 0.0
2017-Apr-27 11:28N 39°33' E 002°38'0 0.0
2017-Apr-27 10:58N 39°33' E 002°38'0 0.0
2017-Apr-27 10:28N 39°33' E 002°38'0 0.0
2017-Apr-27 09:58N 39°33' E 002°38'0 0.0
2017-Apr-27 09:28N 39°33' E 002°38'1 2.1
2017-Apr-27 08:59N 39°33' E 002°39'0 0.0
2017-Apr-27 08:29N 39°33' E 002°39'0 0.0
2017-Apr-27 07:59N 39°33' E 002°39'0 0.0
2017-Apr-27 07:29N 39°33' E 002°39'0 0.0
2017-Apr-27 06:59N 39°33' E 002°39'0 0.0
2017-Apr-27 06:29N 39°33' E 002°39'0 0.0
2017-Apr-27 05:59N 39°33' E 002°39'0 0.0
2017-Apr-27 05:29N 39°33' E 002°39'0 1.0
2017-Apr-27 05:00N 39°33' E 002°39'3 6.4
2017-Apr-27 04:31N 39°30' E 002°37'4 7.6
2017-Apr-27 04:01N 39°27' E 002°34'4 7.5
2017-Apr-27 03:30N 39°24' E 002°31'4 7.2
2017-Apr-27 03:00N 39°21' E 002°28'3 6.8
2017-Apr-27 02:30N 39°19' E 002°26'3 6.6
2017-Apr-27 02:00N 39°16' E 002°23'3 6.8
2017-Apr-27 01:30N 39°13' E 002°20'3 6.6
2017-Apr-27 01:00N 39°11' E 002°17'4 7.1
2017-Apr-27 00:30N 39°08' E 002°14'4 7.8
2017-Apr-27 00:01N 39°05' E 002°11'4 8.2
2017-Apr-26 23:30N 39°02' E 002°08'4 8.3
2017-Apr-26 23:00N 38°58' E 002°05'5 9.4
2017-Apr-26 22:31N 38°55' E 002°01'5 9.9
2017-Apr-26 22:00N 38°51' E 001°56'510.3
2017-Apr-26 21:30N 38°48' E 001°52'510.5
2017-Apr-26 21:00N 38°44' E 001°47'510.5
2017-Apr-26 20:31N 38°40' E 001°43'510.6
2017-Apr-26 20:01N 38°37' E 001°38'610.6
2017-Apr-26 19:29N 38°33' E 001°32'510.7
2017-Apr-26 19:01N 38°30' E 001°27'1011.0
2017-Apr-26 18:07N 38°25' E 001°16'4511.0
2017-Apr-26 14:00N 38°00' E 000°28'710.9
2017-Apr-26 13:24N 37°57' E 000°21'410.9
2017-Apr-26 13:01N 37°54' E 000°16'611.1
2017-Apr-26 12:30N 37°51' E 000°11'611.0
2017-Apr-26 11:56N 37°47' E 000°04'511.1
2017-Apr-26 11:28N 37°44' W 000°01'511.0
2017-Apr-26 11:00N 37°42' W 000°07'610.9
2017-Apr-26 10:30N 37°39' W 000°13'610.9
2017-Apr-26 09:59N 37°36' W 000°19'510.9
2017-Apr-26 09:30N 37°32' W 000°24'510.9
2017-Apr-26 09:00N 37°29' W 000°29'1310.3
2017-Apr-26 07:46N 37°21' W 000°41'310.2
2017-Apr-26 07:31N 37°19' W 000°44'910.2
2017-Apr-26 06:40N 37°14' W 000°52'21010.5
2017-Apr-25 10:39N 36°09' W 005°02'210.8
2017-Apr-25 10:31N 36°09' W 005°04'510.8
2017-Apr-25 10:00N 36°08' W 005°10'510.7
2017-Apr-25 09:31N 36°06' W 005°16'611.5
2017-Apr-25 09:01N 36°01' W 005°21'611.7
2017-Apr-25 08:30N 35°58' W 005°27'611.8
2017-Apr-25 08:00N 35°56' W 005°34'611.5
2017-Apr-25 07:30N 35°55' W 005°41'1110.6
2017-Apr-25 06:25N 35°55' W 005°55'21910.7
2017-Apr-24 09:58N 36°18' W 010°24'4711.5
2017-Apr-24 05:54N 36°26' W 011°21'511.5
2017-Apr-24 05:27N 36°28' W 011°27'511.2
2017-Apr-24 05:00N 36°29' W 011°33'911.3
2017-Apr-24 04:13N 36°31' W 011°44'310.9
2017-Apr-24 03:59N 36°32' W 011°47'1010.8
2017-Apr-24 03:03N 36°35' W 011°59'110.6
2017-Apr-24 02:55N 36°35' W 012°01'51910.2
2017-Apr-22 00:02N 38°14' W 022°43'5210.2
2017-Apr-21 18:56N 38°16' W 023°49'510.5
2017-Apr-21 18:28N 38°16' W 023°55'510.6
2017-Apr-21 18:00N 38°17' W 024°01'510.4
2017-Apr-21 17:30N 38°17' W 024°08'510.4
2017-Apr-21 17:00N 38°17' W 024°14'510.2
2017-Apr-21 16:30N 38°18' W 024°21'510.4
2017-Apr-21 16:00N 38°18' W 024°27'510.1
2017-Apr-21 15:31N 38°18' W 024°34'510.1
2017-Apr-21 15:00N 38°19' W 024°40'510.2
2017-Apr-21 14:30N 38°20' W 024°47'1010.3
2017-Apr-21 13:30N 38°20' W 024°60'510.1
2017-Apr-21 13:00N 38°20' W 025°06'510.0
2017-Apr-21 12:31N 38°21' W 025°12'5 9.8
2017-Apr-21 12:00N 38°21' W 025°19'5 9.9
2017-Apr-21 11:30N 38°21' W 025°25'5 9.8
2017-Apr-21 11:00N 38°21' W 025°31'5 9.7
2017-Apr-21 10:30N 38°21' W 025°37'5 9.7
2017-Apr-21 10:01N 38°21' W 025°43'5 9.5
2017-Apr-21 09:30N 38°21' W 025°50'5 9.3
2017-Apr-21 09:00N 38°21' W 025°55'5 9.5
2017-Apr-21 08:30N 38°21' W 026°01'5 9.6
2017-Apr-21 08:01N 38°22' W 026°08'5 9.2
2017-Apr-21 07:30N 38°22' W 026°13'5 9.0
2017-Apr-21 07:01N 38°22' W 026°19'4 9.0
2017-Apr-21 06:31N 38°23' W 026°25'4 8.8
2017-Apr-21 06:00N 38°23' W 026°30'5 9.2
2017-Apr-21 05:30N 38°24' W 026°36'5 9.1
2017-Apr-21 05:01N 38°24' W 026°42'5 9.0
2017-Apr-21 04:30N 38°24' W 026°48'4 8.8
2017-Apr-21 04:00N 38°24' W 026°53'4 8.9
2017-Apr-21 03:30N 38°24' W 026°59'4 8.8
2017-Apr-21 03:00N 38°25' W 027°05'4 8.7
2017-Apr-21 02:30N 38°25' W 027°10'4 8.8
2017-Apr-21 02:00N 38°25' W 027°16'4 8.9
2017-Apr-21 01:30N 38°26' W 027°21'5 9.2
2017-Apr-21 01:00N 38°27' W 027°27'5 9.4
2017-Apr-21 00:31N 38°28' W 027°33'5 9.2
2017-Apr-21 00:00N 38°28' W 027°39'5 9.3
2017-Apr-20 23:30N 38°29' W 027°45'5 9.3
2017-Apr-20 23:01N 38°30' W 027°51'5 9.2
2017-Apr-20 22:30N 38°31' W 027°56'5 9.5
2017-Apr-20 22:00N 38°32' W 028°02'5 9.6
2017-Apr-20 21:31N 38°33' W 028°08'5 9.4
2017-Apr-20 21:00N 38°33' W 028°14'5 9.2
2017-Apr-20 20:30N 38°34' W 028°20'4 8.7
2017-Apr-20 20:01N 38°35' W 028°26'4 8.8
2017-Apr-20 19:30N 38°34' W 028°31'5 9.4
2017-Apr-20 19:00N 38°32' W 028°37'1 1.2
2017-Apr-20 18:29N 38°32' W 028°37'0 0.0
2017-Apr-20 17:59N 38°32' W 028°37'0 0.0
2017-Apr-20 17:29N 38°32' W 028°37'0 0.0
2017-Apr-20 16:59N 38°32' W 028°37'0 0.0
2017-Apr-20 16:29N 38°32' W 028°37'0 0.0
2017-Apr-20 15:59N 38°32' W 028°37'0 0.4
2017-Apr-20 15:28N 38°32' W 028°38'0 0.0
2017-Apr-20 14:58N 38°32' W 028°38'0 0.0
2017-Apr-20 14:29N 38°32' W 028°38'0 0.0
2017-Apr-20 13:28N 38°32' W 028°38'0 0.0
2017-Apr-20 12:58N 38°32' W 028°38'0 0.0
2017-Apr-20 12:29N 38°32' W 028°38'0 0.0
2017-Apr-20 11:58N 38°32' W 028°38'0 0.0
2017-Apr-20 11:28N 38°32' W 028°38'0 0.0
2017-Apr-20 10:59N 38°32' W 028°38'0 0.0
2017-Apr-20 10:28N 38°32' W 028°38'0 0.0
2017-Apr-20 09:58N 38°32' W 028°38'0 0.0
2017-Apr-20 09:29N 38°32' W 028°38'0 0.0
2017-Apr-20 08:58N 38°32' W 028°38'0 0.0
2017-Apr-20 08:22N 38°32' W 028°38'0 0.0
2017-Apr-20 07:59N 38°32' W 028°38'0 0.0
2017-Apr-20 07:28N 38°32' W 028°38'0 0.0
2017-Apr-20 06:55N 38°32' W 028°38'0 0.0
2017-Apr-20 06:29N 38°32' W 028°38'0 0.0
2017-Apr-20 05:58N 38°32' W 028°38'0 0.0
2017-Apr-20 05:28N 38°32' W 028°38'0 0.0
2017-Apr-20 04:59N 38°32' W 028°38'0 0.0
2017-Apr-20 04:28N 38°32' W 028°38'0 0.0
2017-Apr-20 03:59N 38°32' W 028°38'0 0.0
2017-Apr-20 03:28N 38°32' W 028°38'0 0.0
2017-Apr-20 02:58N 38°32' W 028°38'0 0.0
2017-Apr-20 02:28N 38°32' W 028°38'0 0.0
2017-Apr-20 01:59N 38°32' W 028°38'0 0.0
2017-Apr-20 01:28N 38°32' W 028°38'0 0.0
2017-Apr-20 00:58N 38°32' W 028°38'0 0.0
2017-Apr-20 00:29N 38°32' W 028°38'0 0.0
2017-Apr-19 23:58N 38°32' W 028°38'0 0.0
2017-Apr-19 23:28N 38°32' W 028°38'0 0.0
2017-Apr-19 22:58N 38°32' W 028°38'0 0.0
2017-Apr-19 22:28N 38°32' W 028°38'0 0.0
2017-Apr-19 21:58N 38°32' W 028°38'0 0.0
2017-Apr-19 21:28N 38°32' W 028°38'0 0.0
2017-Apr-19 20:55N 38°32' W 028°38'0 0.0
2017-Apr-19 20:28N 38°32' W 028°38'0 0.0
2017-Apr-19 19:58N 38°32' W 028°38'0 0.0
2017-Apr-19 19:28N 38°32' W 028°38'0 0.0
2017-Apr-19 18:58N 38°32' W 028°38'0 0.0
2017-Apr-19 18:29N 38°32' W 028°38'0 0.0
2017-Apr-19 17:58N 38°32' W 028°38'0 0.0
2017-Apr-19 17:28N 38°32' W 028°38'0 0.0
2017-Apr-19 16:58N 38°32' W 028°38'0 0.0
2017-Apr-19 16:25N 38°32' W 028°38'0 0.0
2017-Apr-19 15:58N 38°32' W 028°38'0 0.0
2017-Apr-19 15:29N 38°32' W 028°38'  

Dump ship's entire track history